createdAt,value
2018-09-30T00:00:25.321Z,11.90
2018-09-30T00:01:25.313Z,11.50
2018-09-30T00:02:25.309Z,9.90
2018-09-30T00:03:25.301Z,10.20
2018-09-30T00:04:25.296Z,11.40
2018-09-30T00:05:25.288Z,13.80
2018-09-30T00:06:25.341Z,10.90
2018-09-30T00:07:25.277Z,8.90
2018-09-30T00:08:25.270Z,9.90
2018-09-30T00:09:25.273Z,10.50
2018-09-30T00:10:25.258Z,13.10
2018-09-30T00:11:25.249Z,10.90
2018-09-30T00:12:25.245Z,10.80
2018-09-30T00:13:25.237Z,12.10
2018-09-30T00:14:25.232Z,12.20
2018-09-30T00:15:25.224Z,12.40
2018-09-30T00:16:25.220Z,11.90
2018-09-30T00:17:25.210Z,13.00
2018-09-30T00:18:25.208Z,12.00
2018-09-30T00:19:25.201Z,13.50
2018-09-30T00:20:25.192Z,14.00
2018-09-30T00:21:25.184Z,13.40
2018-09-30T00:22:25.182Z,11.80
2018-09-30T00:23:25.171Z,13.20
2018-09-30T00:24:25.187Z,13.20
2018-09-30T00:25:25.157Z,14.60
2018-09-30T00:26:25.153Z,12.90
2018-09-30T00:27:25.144Z,16.00
2018-09-30T00:28:25.140Z,12.70
2018-09-30T00:29:25.130Z,12.20
2018-09-30T00:30:25.126Z,13.50
2018-09-30T00:31:25.117Z,12.60
2018-09-30T00:32:25.111Z,13.60
2018-09-30T00:33:25.102Z,11.70
2018-09-30T00:34:25.098Z,12.50
2018-09-30T00:35:25.090Z,12.10
2018-09-30T00:36:25.153Z,14.90
2018-09-30T00:37:25.075Z,11.10
2018-09-30T00:38:25.071Z,12.10
2018-09-30T00:39:25.063Z,12.10
2018-09-30T00:40:25.057Z,11.30
2018-09-30T00:41:25.061Z,10.80
2018-09-30T00:42:25.047Z,13.00
2018-09-30T00:43:25.036Z,12.30
2018-09-30T00:44:25.029Z,12.30
2018-09-30T00:45:25.020Z,13.70
2018-09-30T00:46:25.016Z,12.00
2018-09-30T00:47:25.007Z,11.70
2018-09-30T00:48:25.001Z,10.60
2018-09-30T00:49:24.992Z,12.00
2018-09-30T00:50:24.988Z,10.30
2018-09-30T00:51:24.983Z,13.60
2018-09-30T00:52:24.985Z,11.70
2018-09-30T00:53:24.964Z,11.10
2018-09-30T00:54:24.960Z,13.10
2018-09-30T00:55:24.957Z,10.10
2018-09-30T00:56:24.946Z,11.10
2018-09-30T00:57:24.937Z,12.30
2018-09-30T00:58:24.932Z,11.00
2018-09-30T00:59:24.936Z,11.40
2018-09-30T01:00:24.936Z,12.80
2018-09-30T01:01:24.910Z,14.20
2018-09-30T01:02:24.908Z,11.10
2018-09-30T01:03:24.896Z,12.00
2018-09-30T01:04:24.890Z,12.20
2018-09-30T01:05:24.882Z,12.60
2018-09-30T01:06:24.876Z,12.60
2018-09-30T01:07:24.868Z,13.70
2018-09-30T01:08:24.862Z,11.60
2018-09-30T01:09:24.852Z,12.20
2018-09-30T01:10:24.849Z,12.20
2018-09-30T01:11:24.841Z,12.60
2018-09-30T01:12:24.835Z,12.20
2018-09-30T01:13:24.825Z,12.50
2018-09-30T01:14:24.822Z,10.80
2018-09-30T01:15:24.812Z,11.90
2018-09-30T01:16:24.806Z,11.80
2018-09-30T01:17:24.839Z,10.80
2018-09-30T01:18:24.794Z,14.20
2018-09-30T01:19:24.783Z,11.40
2018-09-30T01:20:24.782Z,10.60
2018-09-30T01:21:24.769Z,11.90
2018-09-30T01:22:24.764Z,12.40
2018-09-30T01:23:24.757Z,10.60
2018-09-30T01:24:24.749Z,10.70
2018-09-30T01:25:24.740Z,11.10
2018-09-30T01:26:24.736Z,12.00
2018-09-30T01:27:24.729Z,10.50
2018-09-30T01:28:24.723Z,12.60
2018-09-30T01:29:24.711Z,11.70
2018-09-30T01:30:24.706Z,13.80
2018-09-30T01:31:24.697Z,12.40
2018-09-30T01:32:24.691Z,11.80
2018-09-30T01:33:24.682Z,10.50
2018-09-30T01:34:24.678Z,11.60
2018-09-30T01:35:24.694Z,11.30
2018-09-30T01:36:24.662Z,12.60
2018-09-30T01:37:24.653Z,11.50
2018-09-30T01:38:24.648Z,12.10
2018-09-30T01:39:24.640Z,10.10
2018-09-30T01:40:24.633Z,11.50
2018-09-30T01:41:24.623Z,11.30
2018-09-30T01:42:24.618Z,13.40
2018-09-30T01:43:24.609Z,12.30
2018-09-30T01:44:24.603Z,10.80
2018-09-30T01:45:24.603Z,9.70
2018-09-30T01:46:24.589Z,10.00
2018-09-30T01:47:24.583Z,12.70
2018-09-30T01:48:24.575Z,11.20
2018-09-30T01:49:24.667Z,11.30
2018-09-30T01:50:24.558Z,14.10
2018-09-30T01:51:24.550Z,10.90
2018-09-30T01:52:24.542Z,10.00
2018-09-30T01:53:24.533Z,11.20
2018-09-30T01:54:24.525Z,12.70
2018-09-30T01:55:24.520Z,12.00
2018-09-30T01:56:24.511Z,11.80
2018-09-30T01:57:24.505Z,10.60
2018-09-30T01:58:24.496Z,11.50
2018-09-30T01:59:24.490Z,10.70
2018-09-30T02:00:24.480Z,12.20
2018-09-30T02:01:24.475Z,10.90
2018-09-30T02:02:24.469Z,9.60
2018-09-30T02:03:24.460Z,12.00
2018-09-30T02:04:24.450Z,11.00
2018-09-30T02:05:24.447Z,9.90
2018-09-30T02:06:24.435Z,10.20
2018-09-30T02:07:24.430Z,12.40
2018-09-30T02:08:24.419Z,9.10
2018-09-30T02:09:24.414Z,10.30
2018-09-30T02:10:24.405Z,12.70
2018-09-30T02:11:24.400Z,10.30
2018-09-30T02:12:24.389Z,10.60
2018-09-30T02:13:24.385Z,10.70
2018-09-30T02:14:24.376Z,11.50
2018-09-30T02:15:24.370Z,10.70
2018-09-30T02:16:24.421Z,8.40
2018-09-30T02:17:24.353Z,10.80
2018-09-30T02:18:24.344Z,11.50
2018-09-30T02:19:24.339Z,11.20
2018-09-30T02:20:24.329Z,11.80
2018-09-30T02:21:24.323Z,10.10
2018-09-30T02:22:24.317Z,9.80
2018-09-30T02:23:24.308Z,10.50
2018-09-30T02:24:24.298Z,11.30
2018-09-30T02:25:24.293Z,11.40
2018-09-30T02:26:24.284Z,10.90
2018-09-30T02:27:24.278Z,10.80
2018-09-30T02:28:24.268Z,12.90
2018-09-30T02:29:24.266Z,9.80
2018-09-30T02:30:24.253Z,10.80
2018-09-30T02:31:24.250Z,10.00
2018-09-30T02:32:24.238Z,11.10
2018-09-30T02:33:24.234Z,10.30
2018-09-30T02:34:24.224Z,10.00
2018-09-30T02:35:24.222Z,10.90
2018-09-30T02:36:24.208Z,9.80
2018-09-30T02:37:24.203Z,8.60
2018-09-30T02:38:24.193Z,8.80
2018-09-30T02:39:24.189Z,12.00
2018-09-30T02:40:24.181Z,10.60
2018-09-30T02:41:24.173Z,9.30
2018-09-30T02:42:24.165Z,11.20
2018-09-30T02:43:24.159Z,11.10
2018-09-30T02:44:24.152Z,11.10
2018-09-30T02:45:24.143Z,10.40
2018-09-30T02:46:24.136Z,10.00
2018-09-30T02:47:24.128Z,10.50
2018-09-30T02:48:24.178Z,8.00
2018-09-30T02:49:24.121Z,10.60
2018-09-30T02:50:24.117Z,11.80
2018-09-30T02:51:24.099Z,10.10
2018-09-30T02:52:24.089Z,10.70
2018-09-30T02:53:24.084Z,12.10
2018-09-30T02:54:24.074Z,8.40
2018-09-30T02:55:24.070Z,10.00
2018-09-30T02:56:24.060Z,11.60
2018-09-30T02:57:24.065Z,10.30
2018-09-30T02:58:24.061Z,11.00
2018-09-30T02:59:24.040Z,11.30
2018-09-30T03:00:24.030Z,11.10
2018-09-30T03:01:24.027Z,11.10
2018-09-30T03:02:24.015Z,11.50
2018-09-30T03:03:24.009Z,11.60
2018-09-30T03:04:23.998Z,10.20
2018-09-30T03:05:23.993Z,11.40
2018-09-30T03:06:23.983Z,11.40
2018-09-30T03:07:23.979Z,10.20
2018-09-30T03:08:23.968Z,11.70
2018-09-30T03:09:23.963Z,10.00
2018-09-30T03:10:23.953Z,11.40
2018-09-30T03:11:23.952Z,10.50
2018-09-30T03:12:23.938Z,11.00
2018-09-30T03:13:23.933Z,10.20
2018-09-30T03:14:23.923Z,10.80
2018-09-30T03:15:23.918Z,9.60
2018-09-30T03:16:23.907Z,10.90
2018-09-30T03:17:23.902Z,9.80
2018-09-30T03:18:23.893Z,11.00
2018-09-30T03:19:23.887Z,12.90
2018-09-30T03:20:23.877Z,11.00
2018-09-30T03:21:23.872Z,10.80
2018-09-30T03:22:23.864Z,10.50
2018-09-30T03:23:23.918Z,11.30
2018-09-30T03:24:23.851Z,10.70
2018-09-30T03:25:23.841Z,12.00
2018-09-30T03:26:23.832Z,9.80
2018-09-30T03:27:23.826Z,11.00
2018-09-30T03:28:23.815Z,10.00
2018-09-30T03:29:23.814Z,10.20
2018-09-30T03:30:23.808Z,11.60
2018-09-30T03:31:23.796Z,11.00
2018-09-30T03:32:23.786Z,9.60
2018-09-30T03:33:23.781Z,9.90
2018-09-30T03:34:23.771Z,11.80
2018-09-30T03:35:23.765Z,10.80
2018-09-30T03:36:23.757Z,11.40
2018-09-30T03:37:23.750Z,8.80
2018-09-30T03:38:23.740Z,12.30
2018-09-30T03:39:23.808Z,11.30
2018-09-30T03:40:23.805Z,12.30
2018-09-30T03:41:23.719Z,10.20
2018-09-30T03:42:23.708Z,10.70
2018-09-30T03:43:23.704Z,12.40
2018-09-30T03:44:23.693Z,12.80
2018-09-30T03:45:23.689Z,10.60
2018-09-30T03:46:23.678Z,9.80
2018-09-30T03:47:23.673Z,10.80
2018-09-30T03:48:23.662Z,10.20
2018-09-30T03:49:23.657Z,9.00
2018-09-30T03:50:23.648Z,10.00
2018-09-30T03:51:23.643Z,8.90
2018-09-30T03:52:23.631Z,8.70
2018-09-30T03:53:23.627Z,11.60
2018-09-30T03:54:23.616Z,10.00
2018-09-30T03:55:23.612Z,11.90
2018-09-30T03:56:23.600Z,9.70
2018-09-30T03:57:23.595Z,9.00
2018-09-30T03:58:23.597Z,8.90
2018-09-30T03:59:23.579Z,10.60
2018-09-30T04:00:23.569Z,9.20
2018-09-30T04:01:23.564Z,9.70
2018-09-30T04:02:23.554Z,11.50
2018-09-30T04:03:23.549Z,9.80
2018-09-30T04:04:23.541Z,9.50
2018-09-30T04:05:23.536Z,11.10
2018-09-30T04:06:23.523Z,10.30
2018-09-30T04:07:23.518Z,10.40
2018-09-30T04:08:23.507Z,11.90
2018-09-30T04:09:23.565Z,10.50
2018-09-30T04:10:23.492Z,9.70
2018-09-30T04:11:23.487Z,10.00
2018-09-30T04:12:23.475Z,10.20
2018-09-30T04:13:23.471Z,9.60
2018-09-30T04:14:23.461Z,9.50
2018-09-30T04:15:23.534Z,8.90
2018-09-30T04:16:23.445Z,10.70
2018-09-30T04:17:23.472Z,9.10
2018-09-30T04:18:23.430Z,11.00
2018-09-30T04:19:23.424Z,9.70
2018-09-30T04:20:23.417Z,10.80
2018-09-30T04:21:23.409Z,10.70
2018-09-30T04:22:23.401Z,10.00
2018-09-30T04:23:23.394Z,10.00
2018-09-30T04:24:23.383Z,10.60
2018-09-30T04:25:23.414Z,10.10
2018-09-30T04:26:23.368Z,10.20
2018-09-30T04:27:23.362Z,10.30
2018-09-30T04:28:23.352Z,11.20
2018-09-30T04:29:23.346Z,9.10
2018-09-30T04:30:23.337Z,11.20
2018-09-30T04:31:23.331Z,10.70
2018-09-30T04:32:23.323Z,11.10
2018-09-30T04:33:23.346Z,10.90
2018-09-30T04:34:23.305Z,10.30
2018-09-30T04:35:23.300Z,12.10
2018-09-30T04:36:23.290Z,11.40
2018-09-30T04:37:23.286Z,11.00
2018-09-30T04:38:23.274Z,8.60
2018-09-30T04:39:23.268Z,10.60
2018-09-30T04:40:23.258Z,11.20
2018-09-30T04:41:23.255Z,10.20
2018-09-30T04:42:23.243Z,12.50
2018-09-30T04:43:23.243Z,9.10
2018-09-30T04:44:23.238Z,9.70
2018-09-30T04:45:23.222Z,12.20
2018-09-30T04:46:23.212Z,12.10
2018-09-30T04:47:23.243Z,9.40
2018-09-30T04:48:23.196Z,10.40
2018-09-30T04:49:23.190Z,10.40
2018-09-30T04:50:23.183Z,12.10
2018-09-30T04:51:23.186Z,12.70
2018-09-30T04:52:23.164Z,10.20
2018-09-30T04:53:23.159Z,11.50
2018-09-30T04:54:23.148Z,9.70
2018-09-30T04:55:23.143Z,9.60
2018-09-30T04:56:23.133Z,11.60
2018-09-30T04:57:23.127Z,11.40
2018-09-30T04:58:23.117Z,8.90
2018-09-30T04:59:23.115Z,10.10
2018-09-30T05:00:23.101Z,11.00
2018-09-30T05:01:23.098Z,10.10
2018-09-30T05:02:23.085Z,11.50
2018-09-30T05:03:23.082Z,9.40
2018-09-30T05:04:23.070Z,9.90
2018-09-30T05:05:23.065Z,9.30
2018-09-30T05:06:23.056Z,11.00
2018-09-30T05:07:23.052Z,9.50
2018-09-30T05:08:23.128Z,10.20
2018-09-30T05:09:23.032Z,9.90
2018-09-30T05:10:23.023Z,11.80
2018-09-30T05:11:23.017Z,10.50
2018-09-30T05:12:23.006Z,9.00
2018-09-30T05:13:23.002Z,9.90
2018-09-30T05:14:22.991Z,10.00
2018-09-30T05:15:22.986Z,9.90
2018-09-30T05:16:23.034Z,11.30
2018-09-30T05:17:22.971Z,12.80
2018-09-30T05:18:22.960Z,9.80
2018-09-30T05:19:22.955Z,10.60
2018-09-30T05:20:22.943Z,10.50
2018-09-30T05:21:22.937Z,12.00
2018-09-30T05:22:22.928Z,9.60
2018-09-30T05:23:22.922Z,12.60
2018-09-30T05:24:22.911Z,10.10
2018-09-30T05:25:22.906Z,11.70
2018-09-30T05:26:22.894Z,11.30
2018-09-30T05:27:22.890Z,9.40
2018-09-30T05:28:22.879Z,11.90
2018-09-30T05:29:22.874Z,9.60
2018-09-30T05:30:22.864Z,12.50
2018-09-30T05:31:22.988Z,10.70
2018-09-30T05:32:22.846Z,11.10
2018-09-30T05:33:22.844Z,13.20
2018-09-30T05:34:22.830Z,11.00
2018-09-30T05:35:22.825Z,13.10
2018-09-30T05:36:22.815Z,10.90
2018-09-30T05:37:22.808Z,12.80
2018-09-30T05:38:22.802Z,9.20
2018-09-30T05:39:22.793Z,8.60
2018-09-30T05:40:22.865Z,9.70
2018-09-30T05:41:22.777Z,9.20
2018-09-30T05:42:22.790Z,11.60
2018-09-30T05:43:22.768Z,10.80
2018-09-30T05:44:22.750Z,10.60
2018-09-30T05:45:22.743Z,11.90
2018-09-30T05:46:22.734Z,10.50
2018-09-30T05:47:22.729Z,10.80
2018-09-30T05:48:22.721Z,10.80
2018-09-30T05:49:22.713Z,10.80
2018-09-30T05:50:22.703Z,10.70
2018-09-30T05:51:22.696Z,9.70
2018-09-30T05:52:22.685Z,10.90
2018-09-30T05:53:22.679Z,10.90
2018-09-30T05:54:22.669Z,8.60
2018-09-30T05:55:22.664Z,11.30
2018-09-30T05:56:22.653Z,10.50
2018-09-30T05:57:22.705Z,11.10
2018-09-30T05:58:22.638Z,10.60
2018-09-30T05:59:22.632Z,8.20
2018-09-30T06:00:22.622Z,11.10
2018-09-30T06:01:22.616Z,10.00
2018-09-30T06:02:22.606Z,9.40
2018-09-30T06:03:22.600Z,8.50
2018-09-30T06:04:22.592Z,10.70
2018-09-30T06:05:22.584Z,9.80
2018-09-30T06:06:22.574Z,11.60
2018-09-30T06:07:22.569Z,9.50
2018-09-30T06:08:22.556Z,10.50
2018-09-30T06:09:22.563Z,10.40
2018-09-30T06:10:22.545Z,10.40
2018-09-30T06:11:22.534Z,9.10
2018-09-30T06:12:22.530Z,8.30
2018-09-30T06:13:22.518Z,10.10
2018-09-30T06:14:22.628Z,11.00
2018-09-30T06:15:22.506Z,12.30
2018-09-30T06:16:22.496Z,10.50
2018-09-30T06:17:22.487Z,10.20
2018-09-30T06:18:22.483Z,9.20
2018-09-30T06:19:22.472Z,10.40
2018-09-30T06:20:22.465Z,10.80
2018-09-30T06:21:22.455Z,8.60
2018-09-30T06:22:22.450Z,8.10
2018-09-30T06:23:22.440Z,10.90
2018-09-30T06:24:22.434Z,8.20
2018-09-30T06:25:22.425Z,8.90
2018-09-30T06:26:22.423Z,9.80
2018-09-30T06:27:22.409Z,8.90
2018-09-30T06:28:22.404Z,9.40
2018-09-30T06:29:22.396Z,8.70
2018-09-30T06:30:22.388Z,9.00
2018-09-30T06:31:22.383Z,8.30
2018-09-30T06:32:22.373Z,9.00
2018-09-30T06:33:22.363Z,9.30
2018-09-30T06:34:22.365Z,10.70
2018-09-30T06:35:22.356Z,7.80
2018-09-30T06:36:22.360Z,10.20
2018-09-30T06:37:22.439Z,8.40
2018-09-30T06:38:22.329Z,8.80
2018-09-30T06:39:22.388Z,7.70
2018-09-30T06:40:22.330Z,8.80
2018-09-30T06:41:22.303Z,10.20
2018-09-30T06:42:22.302Z,10.40
2018-09-30T06:43:22.301Z,10.10
2018-09-30T06:44:22.283Z,9.40
2018-09-30T06:45:22.333Z,8.90
2018-09-30T06:46:22.270Z,8.80
2018-09-30T06:47:22.259Z,8.10
2018-09-30T06:48:22.254Z,10.20
2018-09-30T06:49:22.245Z,7.90
2018-09-30T06:50:22.239Z,7.90
2018-09-30T06:51:22.232Z,8.30
2018-09-30T06:52:22.225Z,8.20
2018-09-30T06:53:22.217Z,7.80
2018-09-30T06:54:22.262Z,8.60
2018-09-30T06:55:22.202Z,8.00
2018-09-30T06:56:22.197Z,7.90
2018-09-30T06:57:22.188Z,9.00
2018-09-30T06:58:22.185Z,8.00
2018-09-30T06:59:22.176Z,8.40
2018-09-30T07:00:22.170Z,8.10
2018-09-30T07:01:22.161Z,9.40
2018-09-30T07:02:22.157Z,8.40
2018-09-30T07:03:22.148Z,8.50
2018-09-30T07:04:22.142Z,10.10
2018-09-30T07:05:22.134Z,6.60
2018-09-30T07:06:22.133Z,9.80
2018-09-30T07:07:22.122Z,8.20
2018-09-30T07:08:22.116Z,7.30
2018-09-30T07:09:22.112Z,8.10
2018-09-30T07:10:22.104Z,9.20
2018-09-30T07:11:22.173Z,7.20
2018-09-30T07:12:22.090Z,7.90
2018-09-30T07:13:22.082Z,8.50
2018-09-30T07:14:22.078Z,9.90
2018-09-30T07:15:22.070Z,8.10
2018-09-30T07:16:22.064Z,7.60
2018-09-30T07:17:22.057Z,9.60
2018-09-30T07:18:22.052Z,8.00
2018-09-30T07:19:22.046Z,8.80
2018-09-30T07:20:22.041Z,8.20
2018-09-30T07:21:22.031Z,8.60
2018-09-30T07:22:22.043Z,8.80
2018-09-30T07:23:22.019Z,7.80
2018-09-30T07:24:22.013Z,7.00
2018-09-30T07:25:22.005Z,8.10
2018-09-30T07:26:22.002Z,7.30
2018-09-30T07:27:21.993Z,7.40
2018-09-30T07:28:21.989Z,8.60
2018-09-30T07:29:21.983Z,6.20
2018-09-30T07:30:21.977Z,7.70
2018-09-30T07:31:21.969Z,5.70
2018-09-30T07:32:22.032Z,7.40
2018-09-30T07:33:21.956Z,7.50
2018-09-30T07:34:21.954Z,8.00
2018-09-30T07:35:21.945Z,7.20
2018-09-30T07:36:21.941Z,7.50
2018-09-30T07:37:21.934Z,8.00
2018-09-30T07:38:21.931Z,6.60
2018-09-30T07:39:21.989Z,7.90
2018-09-30T07:40:21.919Z,7.60
2018-09-30T07:41:21.912Z,7.70
2018-09-30T07:42:21.908Z,7.40
2018-09-30T07:43:21.901Z,9.30
2018-09-30T07:44:21.901Z,8.30
2018-09-30T07:45:21.889Z,8.00
2018-09-30T07:46:21.886Z,6.80
2018-09-30T07:47:21.879Z,7.70
2018-09-30T07:48:21.875Z,7.50
2018-09-30T07:49:21.867Z,9.00
2018-09-30T07:50:21.865Z,8.60
2018-09-30T07:51:21.857Z,8.10
2018-09-30T07:52:21.877Z,6.90
2018-09-30T07:53:21.849Z,7.90
2018-09-30T07:54:21.843Z,8.90
2018-09-30T07:55:21.836Z,6.60
2018-09-30T07:56:21.833Z,7.30
2018-09-30T07:57:21.826Z,5.90
2018-09-30T07:58:21.823Z,7.90
2018-09-30T07:59:21.816Z,7.40
2018-09-30T08:00:21.817Z,9.00
2018-09-30T08:01:21.805Z,7.00
2018-09-30T08:02:21.802Z,8.40
2018-09-30T08:03:21.796Z,8.10
2018-09-30T08:04:21.870Z,8.10
2018-09-30T08:05:21.785Z,8.30
2018-09-30T08:06:21.826Z,10.00
2018-09-30T08:07:21.778Z,8.00
2018-09-30T08:08:21.772Z,9.00
2018-09-30T08:09:21.766Z,6.20
2018-09-30T08:10:21.764Z,7.90
2018-09-30T08:11:21.757Z,8.70
2018-09-30T08:12:21.753Z,8.80
2018-09-30T08:13:21.746Z,9.30
2018-09-30T08:14:21.748Z,9.50
2018-09-30T08:15:21.738Z,8.30
2018-09-30T08:16:21.748Z,7.10
2018-09-30T08:17:21.728Z,7.10
2018-09-30T08:18:21.726Z,8.20
2018-09-30T08:19:21.723Z,7.70
2018-09-30T08:20:21.718Z,9.10
2018-09-30T08:21:21.710Z,8.70
2018-09-30T08:22:21.709Z,7.40
2018-09-30T08:23:21.703Z,7.40
2018-09-30T08:24:21.822Z,8.40
2018-09-30T08:25:21.693Z,7.20
2018-09-30T08:26:21.692Z,8.60
2018-09-30T08:27:21.685Z,8.70
2018-09-30T08:28:21.683Z,6.50
2018-09-30T08:29:21.677Z,6.60
2018-09-30T08:30:21.675Z,8.00
2018-09-30T08:31:21.669Z,7.40
2018-09-30T08:32:21.666Z,8.20
2018-09-30T08:33:21.660Z,8.70
2018-09-30T08:34:21.658Z,6.30
2018-09-30T08:35:21.652Z,7.50
2018-09-30T08:36:21.650Z,9.40
2018-09-30T08:37:21.643Z,7.70
2018-09-30T08:38:21.642Z,7.10
2018-09-30T08:39:21.636Z,8.10
2018-09-30T08:40:21.637Z,7.20
2018-09-30T08:41:21.628Z,7.50
2018-09-30T08:42:21.626Z,7.40
2018-09-30T08:43:21.622Z,7.90
2018-09-30T08:44:21.767Z,6.60
2018-09-30T08:45:21.613Z,7.80
2018-09-30T08:46:21.612Z,6.60
2018-09-30T08:47:21.679Z,6.50
2018-09-30T08:48:21.604Z,7.70
2018-09-30T08:49:21.611Z,7.20
2018-09-30T08:50:21.597Z,9.70
2018-09-30T08:51:21.592Z,6.20
2018-09-30T08:52:21.591Z,9.10
2018-09-30T08:53:21.584Z,6.40
2018-09-30T08:54:21.583Z,8.10
2018-09-30T08:55:21.579Z,7.60
2018-09-30T08:56:21.659Z,9.10
2018-09-30T08:57:21.571Z,6.50
2018-09-30T08:58:21.570Z,6.80
2018-09-30T08:59:21.565Z,8.80
2018-09-30T09:00:21.563Z,6.90
2018-09-30T09:01:21.558Z,6.50
2018-09-30T09:02:22.973Z,8.50
2018-09-30T09:03:21.555Z,8.90
2018-09-30T09:04:21.550Z,5.60
2018-09-30T09:05:22.556Z,8.20
2018-09-30T09:06:22.153Z,6.50
2018-09-30T09:07:21.539Z,7.30
2018-09-30T09:08:21.537Z,7.50
2018-09-30T09:09:24.155Z,8.00
2018-09-30T09:11:22.540Z,8.40
2018-09-30T09:12:21.726Z,7.80
2018-09-30T09:13:21.533Z,7.40
2018-09-30T09:14:22.121Z,7.10
2018-09-30T09:15:25.397Z,7.30
2018-09-30T09:17:31.792Z,8.30
2018-09-30T09:20:16.383Z,7.50
2018-09-30T09:21:19.001Z,6.20
2018-09-30T09:22:17.666Z,6.60
2018-09-30T09:24:28.841Z,6.70
2018-09-30T09:25:32.068Z,8.00
2018-09-30T09:26:28.837Z,5.90
2018-09-30T09:27:28.871Z,5.90
2018-09-30T09:28:28.828Z,8.20
2018-09-30T09:29:28.830Z,9.20
2018-09-30T09:30:29.430Z,6.50
2018-09-30T09:33:06.424Z,6.50
2018-09-30T09:34:53.787Z,5.90
2018-09-30T09:36:36.162Z,8.40
2018-09-30T09:38:23.600Z,7.20
2018-09-30T09:39:27.617Z,7.00
2018-09-30T09:40:23.777Z,6.10
2018-09-30T09:41:23.575Z,8.10
2018-09-30T09:42:23.571Z,6.90
2018-09-30T09:44:24.375Z,6.10
2018-09-30T09:45:23.566Z,6.20
2018-09-30T09:46:23.569Z,7.30
2018-09-30T09:47:23.568Z,8.20
2018-09-30T09:52:08.310Z,6.50
2018-09-30T09:53:08.312Z,8.00
2018-09-30T09:54:08.304Z,8.80
2018-09-30T09:55:08.304Z,7.00
2018-09-30T09:56:08.301Z,5.60
2018-09-30T09:57:08.300Z,5.90
2018-09-30T09:58:08.296Z,8.90
2018-09-30T09:59:08.379Z,6.50
2018-09-30T10:00:08.292Z,6.90
2018-09-30T10:01:08.292Z,7.20
2018-09-30T10:02:08.288Z,6.60
2018-09-30T10:03:08.288Z,8.10
2018-09-30T10:04:08.284Z,6.70
2018-09-30T10:05:08.351Z,5.90
2018-09-30T10:06:08.359Z,7.20
2018-09-30T10:07:08.282Z,8.60
2018-09-30T10:08:08.303Z,9.60
2018-09-30T10:09:08.279Z,7.00
2018-09-30T10:10:08.375Z,6.50
2018-09-30T10:11:08.276Z,7.20
2018-09-30T10:12:08.271Z,6.70
2018-09-30T10:13:08.283Z,7.30
2018-09-30T10:14:08.268Z,6.80
2018-09-30T10:15:08.271Z,6.80
2018-09-30T10:16:08.266Z,7.00
2018-09-30T10:17:08.267Z,5.70
2018-09-30T10:18:08.263Z,7.30
2018-09-30T10:19:08.265Z,8.30
2018-09-30T10:20:08.261Z,6.30
2018-09-30T10:21:08.266Z,7.30
2018-09-30T10:22:08.258Z,8.50
2018-09-30T10:23:08.260Z,8.60
2018-09-30T10:24:08.257Z,5.80
2018-09-30T10:25:08.257Z,7.50
2018-09-30T10:26:08.253Z,7.50
2018-09-30T10:27:08.256Z,6.50
2018-09-30T10:28:08.559Z,6.40
2018-09-30T10:29:08.252Z,6.10
2018-09-30T10:30:08.254Z,6.70
2018-09-30T10:31:08.250Z,6.70
2018-09-30T10:32:08.246Z,7.50
2018-09-30T10:33:08.249Z,7.60
2018-09-30T10:34:08.245Z,7.70
2018-09-30T10:35:08.247Z,6.10
2018-09-30T10:36:08.246Z,5.50
2018-09-30T10:37:08.248Z,7.10
2018-09-30T10:38:08.241Z,6.70
2018-09-30T10:39:08.381Z,6.00
2018-09-30T10:40:08.242Z,8.40
2018-09-30T10:41:08.243Z,8.60
2018-09-30T10:42:08.241Z,6.90
2018-09-30T10:43:08.241Z,6.80
2018-09-30T10:44:08.239Z,6.90
2018-09-30T10:45:08.241Z,6.10
2018-09-30T10:46:08.238Z,7.80
2018-09-30T10:47:08.243Z,7.10
2018-09-30T10:48:08.237Z,7.40
2018-09-30T10:49:08.240Z,8.30
2018-09-30T10:50:08.235Z,6.20
2018-09-30T10:51:08.237Z,6.10
2018-09-30T10:52:08.236Z,6.60
2018-09-30T10:53:08.237Z,6.80
2018-09-30T10:54:08.259Z,8.60
2018-09-30T10:55:08.283Z,6.30
2018-09-30T10:56:08.233Z,8.60
2018-09-30T10:57:08.235Z,6.20
2018-09-30T10:58:08.231Z,6.70
2018-09-30T10:59:08.236Z,6.40
2018-09-30T11:00:08.233Z,5.00
2018-09-30T11:01:08.233Z,7.30
2018-09-30T11:26:56.916Z,5.60
2018-09-30T11:27:55.907Z,9.30
2018-09-30T11:28:55.701Z,7.10
2018-09-30T11:29:56.309Z,9.30
2018-09-30T11:30:55.700Z,7.60
2018-09-30T11:36:24.712Z,7.60
2018-09-30T11:37:24.714Z,5.80
2018-09-30T11:38:24.711Z,7.50
2018-09-30T11:39:24.714Z,5.50
2018-09-30T11:40:24.710Z,6.00
2018-09-30T11:41:24.713Z,7.40
2018-09-30T11:42:24.710Z,6.30
2018-09-30T11:43:24.714Z,8.70
2018-09-30T11:44:24.712Z,5.30
2018-09-30T11:45:24.713Z,5.00
2018-09-30T11:46:25.359Z,4.80
2018-09-30T12:03:22.488Z,6.40
2018-09-30T12:04:22.492Z,4.90
2018-09-30T12:05:22.490Z,6.10
2018-09-30T12:17:39.672Z,4.50
2018-09-30T12:18:39.713Z,5.80
2018-09-30T12:19:39.670Z,4.50
2018-09-30T12:20:39.673Z,5.60
2018-09-30T12:21:39.674Z,6.80
2018-09-30T12:22:39.676Z,5.10
2018-09-30T12:23:39.674Z,6.90
2018-09-30T12:24:39.677Z,5.30
2018-09-30T12:25:39.733Z,5.90
2018-09-30T12:26:39.685Z,5.30
2018-09-30T12:27:39.687Z,5.30
2018-09-30T12:28:39.694Z,5.30
2018-09-30T12:29:39.697Z,6.50
2018-09-30T12:30:39.703Z,5.10
2018-09-30T12:31:39.800Z,5.90
2018-09-30T12:32:39.713Z,6.40
2018-09-30T12:33:39.717Z,5.90
2018-09-30T12:34:39.724Z,5.40
2018-09-30T12:35:41.193Z,5.70
2018-09-30T16:24:26.363Z,9.40
2018-09-30T16:25:26.368Z,10.10
2018-09-30T16:26:26.363Z,10.70
2018-09-30T16:27:26.366Z,9.40
2018-09-30T16:31:27.124Z,10.50
2018-09-30T16:32:27.128Z,10.10
2018-09-30T16:33:27.122Z,9.10
2018-09-30T16:34:27.123Z,9.40
2018-09-30T16:35:27.131Z,10.30
2018-09-30T16:36:27.123Z,9.50
2018-09-30T16:37:27.120Z,10.60
2018-09-30T16:38:27.121Z,9.60
2018-09-30T16:39:27.118Z,10.00
2018-09-30T16:40:27.120Z,8.40
2018-09-30T16:41:27.146Z,11.30
2018-09-30T16:42:27.118Z,10.60
2018-09-30T16:43:27.115Z,11.00
2018-09-30T16:44:27.173Z,12.00
2018-09-30T16:45:27.204Z,9.90
2018-09-30T16:46:27.116Z,9.30
2018-09-30T16:47:27.114Z,9.50
2018-09-30T16:48:27.115Z,10.60
2018-09-30T16:49:27.116Z,10.80
2018-09-30T16:50:27.169Z,8.80
2018-09-30T16:51:27.114Z,9.90
2018-09-30T16:52:27.114Z,10.20
2018-09-30T16:53:27.109Z,10.40
2018-09-30T16:54:27.111Z,10.30
2018-09-30T16:55:27.108Z,11.00
2018-09-30T16:56:27.115Z,10.00
2018-09-30T16:57:27.107Z,10.40
2018-09-30T16:58:27.111Z,15.40
2018-09-30T16:59:27.109Z,19.30
2018-09-30T17:00:27.107Z,17.50
2018-09-30T17:01:27.103Z,12.20
2018-09-30T17:02:27.105Z,10.60
2018-09-30T17:03:27.105Z,11.30
2018-09-30T17:04:27.103Z,10.90
2018-09-30T17:05:27.101Z,11.00
2018-09-30T17:06:27.102Z,11.30
2018-09-30T17:07:27.099Z,12.10
2018-09-30T17:08:27.101Z,10.00
2018-09-30T17:09:27.098Z,9.60
2018-09-30T17:10:27.098Z,9.90
2018-09-30T17:11:27.097Z,10.40
2018-09-30T17:12:27.097Z,11.00
2018-09-30T17:13:27.144Z,9.00
2018-09-30T17:14:27.096Z,10.60
2018-09-30T17:15:27.092Z,10.30
2018-09-30T17:16:27.095Z,9.00
2018-09-30T17:17:27.178Z,9.40
2018-09-30T17:18:27.092Z,10.20
2018-09-30T17:19:27.088Z,11.30
2018-09-30T17:20:27.090Z,11.00
2018-09-30T17:21:27.088Z,10.60
2018-09-30T17:22:27.088Z,11.00
2018-09-30T17:23:27.143Z,13.00
2018-09-30T17:24:27.086Z,13.90
2018-09-30T17:25:27.334Z,12.40
2018-09-30T17:26:27.084Z,11.80
2018-09-30T17:27:27.081Z,12.20
2018-09-30T17:28:27.084Z,10.40
2018-09-30T17:29:27.080Z,12.30
2018-09-30T17:30:27.079Z,10.40
2018-09-30T17:31:27.078Z,12.40
2018-09-30T17:32:27.079Z,10.40
2018-09-30T17:33:27.074Z,13.20
2018-09-30T17:34:27.075Z,10.30
2018-09-30T17:35:27.072Z,11.60
2018-09-30T17:36:27.076Z,10.30
2018-09-30T17:37:27.074Z,11.80
2018-09-30T17:38:27.080Z,10.00
2018-09-30T17:39:27.077Z,13.20
2018-09-30T17:40:27.079Z,13.70
2018-09-30T17:41:27.078Z,14.20
2018-09-30T17:42:27.086Z,12.40
2018-09-30T17:43:27.063Z,10.20
2018-09-30T17:44:27.064Z,12.00
2018-09-30T17:45:27.060Z,14.00
2018-09-30T17:46:27.060Z,10.50
2018-09-30T17:47:27.057Z,12.90
2018-09-30T17:48:27.059Z,11.10
2018-09-30T17:49:27.055Z,10.30
2018-09-30T17:50:27.055Z,12.70
2018-09-30T17:51:27.053Z,13.40
2018-09-30T17:52:27.059Z,11.90
2018-09-30T17:53:27.050Z,13.20
2018-09-30T17:54:27.050Z,12.40
2018-09-30T17:55:27.047Z,12.40
2018-09-30T17:56:27.048Z,11.90
2018-09-30T17:57:27.048Z,11.40
2018-09-30T17:58:27.045Z,12.40
2018-09-30T17:59:27.041Z,11.10
2018-09-30T18:00:27.043Z,13.40
2018-09-30T18:01:27.039Z,10.30
2018-09-30T18:02:27.041Z,13.70
2018-09-30T18:03:27.040Z,10.60
2018-09-30T18:04:27.044Z,12.40
2018-09-30T18:05:27.042Z,13.70
2018-09-30T18:06:27.154Z,11.30